Time;durP1;ratioP1;P1;durP2;ratioP2;P2;SDS_P1;SDS_P2;PMS_P1;PMS_P2;Temp;Humidity;BMP_temperature;BMP_pressure;BME280_temperature;BME280_humidity;BME280_pressure;Samples;Min_cycle;Max_cycle;Signal;HPM_P1;HPM_P2
2022/03/09 00:01:29;;;;;;;7.63;4.80;;;8.80;48.40;;;;;;5026533;28;20229;-58
2022/03/09 00:03:57;;;;;;;7.87;4.87;;;8.80;48.50;;;;;;5026119;28;20203;-57
2022/03/09 00:06:25;;;;;;;11.17;4.70;;;8.80;48.70;;;;;;5023653;28;20199;-57
2022/03/09 00:08:53;;;;;;;9.27;5.10;;;8.80;48.70;;;;;;5026840;28;20206;-59
2022/03/09 00:11:20;;;;;;;7.37;4.50;;;8.70;48.70;;;;;;5024793;28;20198;-56
2022/03/09 00:13:48;;;;;;;11.53;5.60;;;8.70;48.80;;;;;;5023978;28;20228;-59
2022/03/09 00:16:16;;;;;;;10.93;6.20;;;8.70;49.10;;;;;;5025876;28;20186;-58
2022/03/09 00:18:45;;;;;;;10.83;5.53;;;8.70;49.20;;;;;;5020484;28;20706;-57
2022/03/09 00:21:12;;;;;;;8.70;4.90;;;8.60;49.10;;;;;;5031365;28;20215;-57
2022/03/09 00:23:40;;;;;;;7.50;4.60;;;8.60;49.20;;;;;;5030434;28;20195;-56
2022/03/09 00:26:07;;;;;;;7.17;4.40;;;8.60;49.30;;;;;;5009967;28;20206;-54
2022/03/09 00:28:35;;;;;;;7.70;4.60;;;8.60;49.30;;;;;;5028404;28;20225;-51
2022/03/09 00:31:02;;;;;;;9.50;5.60;;;8.60;49.40;;;;;;5029605;28;20302;-58
2022/03/09 00:33:30;;;;;;;9.03;4.97;;;8.60;49.50;;;;;;5026984;28;20282;-52
2022/03/09 00:35:58;;;;;;;6.40;4.40;;;8.60;49.60;;;;;;5030934;28;20207;-56
2022/03/09 00:38:26;;;;;;;5.47;3.70;;;8.60;49.50;;;;;;5030793;28;20225;-56
2022/03/09 00:40:53;;;;;;;7.73;4.07;;;8.70;49.50;;;;;;5024959;28;20202;-55
2022/03/09 00:43:20;;;;;;;6.30;4.30;;;8.70;49.50;;;;;;5030367;28;20241;-54
2022/03/09 00:45:48;;;;;;;4.73;3.57;;;8.70;49.70;;;;;;5028402;28;20562;-58
2022/03/09 00:48:16;;;;;;;5.07;3.50;;;8.60;49.60;;;;;;5030016;28;20218;-52
2022/03/09 00:50:43;;;;;;;6.60;4.10;;;8.60;49.60;;;;;;5028842;28;20256;-56
2022/03/09 00:53:12;;;;;;;6.53;4.17;;;8.50;49.70;;;;;;5030218;28;20617;-53
2022/03/09 00:55:39;;;;;;;5.37;3.50;;;8.60;50.00;;;;;;5030479;28;20277;-57
2022/03/09 00:58:07;;;;;;;6.23;4.20;;;8.60;50.00;;;;;;5013634;28;20310;-57
2022/03/09 01:00:34;;;;;;;8.20;4.67;;;8.60;50.10;;;;;;5029541;28;20268;-58
2022/03/09 01:03:02;;;;;;;7.27;4.20;;;8.60;50.20;;;;;;5026616;28;20691;-59
2022/03/09 01:05:29;;;;;;;6.23;4.00;;;8.60;50.20;;;;;;5021860;28;20196;-56
2022/03/09 01:07:56;;;;;;;6.40;4.30;;;8.60;50.30;;;;;;5026202;28;20686;-53
2022/03/09 01:10:25;;;;;;;5.70;3.77;;;8.50;50.30;;;;;;5028900;28;20198;-55
2022/03/09 01:12:55;;;;;;;7.23;4.50;;;8.50;50.40;;;;;;5024171;28;20654;-57
2022/03/09 01:15:22;;;;;;;10.93;5.23;;;8.50;50.50;;;;;;5027596;28;20681;-56
2022/03/09 01:17:50;;;;;;;10.17;4.87;;;8.50;50.60;;;;;;5025696;28;20194;-56
2022/03/09 01:20:17;;;;;;;7.83;5.17;;;8.50;50.70;;;;;;5020364;28;20569;-55
2022/03/09 01:22:44;;;;;;;10.10;5.10;;;8.40;50.90;;;;;;5022239;28;20204;-54
2022/03/09 01:25:11;;;;;;;11.10;5.90;;;8.40;51.00;;;;;;5027258;28;20687;-57
2022/03/09 01:27:40;;;;;;;9.70;5.17;;;8.40;51.30;;;;;;5027109;28;20219;-55
2022/03/09 01:30:08;;;;;;;7.77;4.60;;;8.30;51.40;;;;;;5026883;28;20206;-53
2022/03/09 01:32:36;;;;;;;9.93;5.30;;;8.30;51.40;;;;;;5011983;28;20606;-55
2022/03/09 01:35:04;;;;;;;11.30;6.07;;;8.30;51.60;;;;;;5022889;28;20199;-50
2022/03/09 01:37:32;;;;;;;10.63;6.17;;;8.30;51.90;;;;;;5021827;28;20194;-56
2022/03/09 01:39:59;;;;;;;9.30;5.50;;;8.20;52.00;;;;;;5030484;28;20519;-51
2022/03/09 01:42:26;;;;;;;7.53;4.30;;;8.20;51.90;;;;;;5025992;28;20196;-55
2022/03/09 01:45:00;;;;;;;8.10;4.77;;;8.20;52.00;;;;;;5028734;28;20194;-55
2022/03/09 01:47:27;;;;;;;7.23;4.37;;;8.20;51.90;;;;;;5021605;28;20686;-50
2022/03/09 01:49:54;;;;;;;6.73;4.03;;;8.20;52.20;;;;;;5027147;28;20193;-56
2022/03/09 01:52:21;;;;;;;5.73;3.80;;;8.20;52.20;;;;;;5029518;28;20202;-55
2022/03/09 01:54:49;;;;;;;5.97;3.83;;;8.20;52.20;;;;;;5027070;28;20195;-55
2022/03/09 01:57:16;;;;;;;5.00;3.60;;;8.30;52.20;;;;;;5026531;28;20183;-55
2022/03/09 01:59:43;;;;;;;5.67;3.67;;;8.30;52.20;;;;;;5010988;28;20638;-53
2022/03/09 02:02:12;;;;;;;6.73;4.00;;;8.30;52.20;;;;;;5026513;28;20245;-52
2022/03/09 02:04:39;;;;;;;5.43;3.70;;;8.30;52.20;;;;;;5022016;28;20190;-54
2022/03/09 02:07:08;;;;;;;7.40;4.20;;;8.30;52.20;;;;;;5029385;28;20670;-54
2022/03/09 02:09:44;;;;;;;7.03;4.00;;;8.30;52.30;;;;;;5009476;28;20198;-55
2022/03/09 02:12:13;;;;;;;7.97;4.73;;;8.30;52.40;;;;;;5020787;28;20201;-55
2022/03/09 02:14:42;;;;;;;6.60;3.93;;;8.30;52.40;;;;;;5022616;28;20192;-54
2022/03/09 02:17:13;;;;;;;6.30;3.50;;;8.30;52.40;;;;;;5009880;28;20203;-55
2022/03/09 02:19:41;;;;;;;5.97;3.57;;;8.30;52.30;;;;;;5024806;28;20603;-52
2022/03/09 02:22:17;;;;;;;6.13;3.73;;;8.30;52.40;;;;;;5023493;28;20202;-56
2022/03/09 02:24:46;;;;;;;5.27;3.47;;;8.20;52.30;;;;;;5028834;28;20224;-54
2022/03/09 02:27:13;;;;;;;6.77;4.37;;;8.20;52.40;;;;;;5025643;28;20660;-52
2022/03/09 02:29:41;;;;;;;6.40;4.20;;;8.10;52.50;;;;;;5030891;28;20194;-54
2022/03/09 02:32:08;;;;;;;4.83;3.57;;;8.10;52.50;;;;;;5024679;28;20205;-56
2022/03/09 02:34:37;;;;;;;11.27;5.60;;;8.10;52.70;;;;;;5029781;28;20259;-53
2022/03/09 02:37:04;;;;;;;8.83;4.70;;;8.10;52.90;;;;;;5031530;28;20563;-57
2022/03/09 02:39:31;;;;;;;7.03;4.00;;;8.10;52.90;;;;;;5032600;28;20202;-57
2022/03/09 02:42:00;;;;;;;7.03;4.07;;;8.00;52.90;;;;;;5029066;28;20260;-57
2022/03/09 02:44:27;;;;;;;6.77;4.37;;;8.00;52.90;;;;;;5032856;28;20658;-57
2022/03/09 02:46:54;;;;;;;9.63;4.60;;;8.00;53.00;;;;;;5031336;28;20198;-54
2022/03/09 02:49:21;;;;;;;11.57;4.60;;;7.90;53.10;;;;;;5030065;28;20237;-52
2022/03/09 02:51:48;;;;;;;7.83;3.70;;;7.90;53.10;;;;;;5032819;28;20607;-57
2022/03/09 02:54:16;;;;;;;9.43;5.17;;;7.90;53.20;;;;;;5030611;28;20216;-52
2022/03/09 02:56:43;;;;;;;8.20;4.70;;;8.00;53.40;;;;;;5030216;28;20209;-54
2022/03/09 02:59:12;;;;;;;10.03;5.20;;;8.00;53.50;;;;;;5026313;28;20193;-55
2022/03/09 03:01:39;;;;;;;7.77;4.60;;;8.00;53.50;;;;;;5030673;28;20792;-54
2022/03/09 03:04:07;;;;;;;5.83;3.90;;;8.00;53.60;;;;;;5024422;28;20198;-56
2022/03/09 03:06:34;;;;;;;9.63;5.00;;;7.90;53.50;;;;;;5020395;28;20562;-51
2022/03/09 03:09:01;;;;;;;5.77;4.40;;;7.90;53.60;;;;;;5029020;28;20215;-56
2022/03/09 03:11:28;;;;;;;7.63;4.50;;;7.90;53.80;;;;;;5030376;28;20229;-56
2022/03/09 03:13:56;;;;;;;8.27;4.70;;;7.90;53.80;;;;;;5028170;28;20194;-55
2022/03/09 03:16:24;;;;;;;4.90;3.60;;;7.90;53.80;;;;;;5024445;28;20696;-52
2022/03/09 03:18:51;;;;;;;6.70;3.67;;;7.90;53.80;;;;;;5028021;28;20267;-55
2022/03/09 03:21:18;;;;;;;6.97;4.03;;;7.80;53.80;;;;;;5026200;28;20213;-55
2022/03/09 03:23:45;;;;;;;5.77;3.90;;;7.80;53.80;;;;;;5022054;28;20225;-58
2022/03/09 03:26:13;;;;;;;6.03;3.63;;;7.80;53.90;;;;;;5029196;28;20198;-57
2022/03/09 03:28:40;;;;;;;5.97;3.93;;;7.70;53.90;;;;;;5030713;28;20210;-56
2022/03/09 03:31:07;;;;;;;7.70;4.70;;;7.70;54.00;;;;;;5022769;28;20201;-56
2022/03/09 03:33:35;;;;;;;5.97;3.97;;;7.70;54.10;;;;;;5022124;28;20193;-57
2022/03/09 03:36:02;;;;;;;4.80;3.60;;;7.70;54.10;;;;;;5021627;28;20199;-57
2022/03/09 03:38:30;;;;;;;6.33;3.83;;;7.60;54.10;;;;;;5024790;28;20203;-56
2022/03/09 03:40:57;;;;;;;4.77;3.40;;;7.60;54.20;;;;;;5027650;28;20511;-57
2022/03/09 03:43:24;;;;;;;5.20;3.70;;;7.60;54.30;;;;;;5024822;28;20550;-52
2022/03/09 03:45:51;;;;;;;4.43;3.50;;;7.60;54.30;;;;;;5020871;28;20661;-55
2022/03/09 03:48:18;;;;;;;4.10;3.07;;;7.60;54.40;;;;;;5025739;28;20562;-54
2022/03/09 03:50:47;;;;;;;3.37;2.83;;;7.50;54.30;;;;;;5027272;28;20224;-54
2022/03/09 03:53:14;;;;;;;4.27;3.07;;;7.50;54.40;;;;;;5029685;28;20201;-56
2022/03/09 03:55:41;;;;;;;3.80;2.83;;;7.50;54.50;;;;;;5022438;28;20201;-55
2022/03/09 03:58:08;;;;;;;5.10;3.40;;;7.50;54.50;;;;;;5030930;28;20320;-56
2022/03/09 04:00:35;;;;;;;6.10;3.10;;;7.50;54.60;;;;;;5028708;28;20238;-55
2022/03/09 04:03:02;;;;;;;4.40;3.10;;;7.40;54.60;;;;;;5028247;28;20238;-57
2022/03/09 04:05:30;;;;;;;3.77;3.10;;;7.40;54.70;;;;;;5019168;28;20209;-56
2022/03/09 04:07:58;;;;;;;5.27;3.20;;;7.40;54.80;;;;;;5025224;28;20213;-56
2022/03/09 04:10:26;;;;;;;4.67;3.23;;;7.40;54.90;;;;;;5023270;28;20209;-55
2022/03/09 04:12:53;;;;;;;6.17;3.43;;;7.40;54.90;;;;;;5022681;28;20207;-51
2022/03/09 04:15:20;;;;;;;5.47;3.80;;;7.40;55.00;;;;;;5011516;28;20699;-55
2022/03/09 04:17:48;;;;;;;5.87;3.63;;;7.40;55.00;;;;;;5030169;28;20211;-56
2022/03/09 04:20:16;;;;;;;5.77;3.90;;;7.50;55.20;;;;;;5027758;28;20205;-56
2022/03/09 04:22:43;;;;;;;7.23;4.53;;;7.50;55.20;;;;;;5028011;28;20206;-53
2022/03/09 04:25:12;;;;;;;8.37;4.50;;;7.50;55.20;;;;;;5008715;28;20296;-54
2022/03/09 04:27:40;;;;;;;9.17;5.53;;;7.50;55.20;;;;;;5021025;28;20201;-54
2022/03/09 04:30:09;;;;;;;7.60;4.77;;;7.50;55.30;;;;;;5023532;28;20198;-53
2022/03/09 04:32:37;;;;;;;8.47;5.20;;;7.50;55.40;;;;;;5029381;28;20275;-54
2022/03/09 04:35:06;;;;;;;6.40;4.40;;;7.40;55.30;;;;;;5027882;28;20727;-53
2022/03/09 04:37:33;;;;;;;6.23;4.07;;;7.40;55.40;;;;;;5030937;28;20208;-54
2022/03/09 04:40:01;;;;;;;5.73;3.73;;;7.50;55.50;;;;;;5029525;28;20183;-53
2022/03/09 04:42:29;;;;;;;6.37;3.83;;;7.40;55.40;;;;;;5023632;28;20199;-58
2022/03/09 04:44:57;;;;;;;6.03;4.27;;;7.40;55.50;;;;;;5025799;28;20276;-58
2022/03/09 04:47:24;;;;;;;5.27;3.40;;;7.40;55.50;;;;;;5011880;28;20698;-58
2022/03/09 04:49:52;;;;;;;5.10;3.80;;;7.30;55.50;;;;;;5029755;28;20213;-55
2022/03/09 04:52:19;;;;;;;7.43;4.07;;;7.30;55.70;;;;;;5018730;28;20649;-56
2022/03/09 04:54:47;;;;;;;6.87;3.93;;;7.30;55.80;;;;;;5030635;28;20201;-55
2022/03/09 04:57:15;;;;;;;5.50;4.07;;;7.30;55.80;;;;;;5029633;28;20195;-54
2022/03/09 04:59:43;;;;;;;7.33;4.40;;;7.30;55.90;;;;;;5028058;28;20187;-53
2022/03/09 05:02:10;;;;;;;7.07;4.30;;;7.20;55.90;;;;;;5028015;28;20229;-58
2022/03/09 05:04:37;;;;;;;6.70;4.47;;;7.20;56.00;;;;;;5009551;28;20205;-57
2022/03/09 05:07:05;;;;;;;5.67;4.03;;;7.30;56.20;;;;;;5027178;28;20725;-56
2022/03/09 05:09:32;;;;;;;5.10;3.63;;;7.30;56.10;;;;;;5025109;28;20217;-57
2022/03/09 05:12:00;;;;;;;4.13;3.40;;;7.30;56.10;;;;;;5011164;28;20658;-56
2022/03/09 05:14:27;;;;;;;6.00;3.57;;;7.30;56.20;;;;;;5008644;28;20212;-53
2022/03/09 05:16:56;;;;;;;6.23;3.40;;;7.30;56.20;;;;;;5026672;28;20204;-55
2022/03/09 05:19:23;;;;;;;5.93;4.07;;;7.20;56.20;;;;;;5029450;28;20285;-55
2022/03/09 05:21:51;;;;;;;8.50;3.87;;;7.20;56.30;;;;;;5028316;28;20197;-55
2022/03/09 05:24:19;;;;;;;6.00;3.70;;;7.20;56.40;;;;;;5000265;28;20202;-55
2022/03/09 05:26:47;;;;;;;8.50;3.63;;;7.20;56.40;;;;;;5009633;28;20203;-53
2022/03/09 05:29:14;;;;;;;7.63;4.27;;;7.20;56.40;;;;;;5024624;28;20325;-53
2022/03/09 05:31:44;;;;;;;6.70;4.47;;;7.20;56.60;;;;;;5028097;28;20210;-54
2022/03/09 05:34:13;;;;;;;7.10;4.27;;;7.20;56.60;;;;;;5027324;28;20195;-52
2022/03/09 05:36:41;;;;;;;8.50;4.10;;;7.10;56.70;;;;;;5025945;28;20190;-56
2022/03/09 05:39:08;;;;;;;9.50;4.60;;;7.10;56.70;;;;;;5022783;28;20195;-56
2022/03/09 05:41:35;;;;;;;10.57;5.60;;;7.10;56.80;;;;;;5026802;28;20193;-55
2022/03/09 05:44:03;;;;;;;9.50;4.93;;;7.10;57.00;;;;;;5023389;28;20199;-57
2022/03/09 05:46:30;;;;;;;10.20;4.53;;;7.10;57.10;;;;;;5025843;28;20198;-55
2022/03/09 05:48:57;;;;;;;6.80;3.93;;;7.20;57.20;;;;;;5027860;28;20220;-57
2022/03/09 05:51:26;;;;;;;8.70;4.70;;;7.30;57.20;;;;;;5022757;28;20269;-57
2022/03/09 05:53:53;;;;;;;6.63;3.87;;;7.20;57.00;;;;;;5028778;28;20225;-55
2022/03/09 05:56:20;;;;;;;6.70;4.03;;;7.20;57.10;;;;;;5023014;28;20659;-57
2022/03/09 05:58:47;;;;;;;5.90;3.87;;;7.10;57.20;;;;;;5025518;28;20203;-57
2022/03/09 06:01:15;;;;;;;7.63;3.90;;;7.10;57.20;;;;;;5026154;28;20234;-57
2022/03/09 06:03:42;;;;;;;5.43;3.80;;;7.20;57.30;;;;;;5003053;28;20238;-57
2022/03/09 06:06:10;;;;;;;4.97;3.67;;;7.20;57.30;;;;;;5005628;28;20210;-58
2022/03/09 06:08:38;;;;;;;4.87;3.33;;;7.20;57.40;;;;;;5023101;28;20224;-57
2022/03/09 06:11:05;;;;;;;7.13;3.70;;;7.20;57.40;;;;;;5026309;28;20198;-58
2022/03/09 06:13:32;;;;;;;5.23;3.70;;;7.20;57.50;;;;;;5026992;28;20204;-56
2022/03/09 06:16:00;;;;;;;5.03;3.53;;;7.30;57.50;;;;;;5025689;28;20206;-55
2022/03/09 06:18:27;;;;;;;4.20;3.27;;;7.30;57.50;;;;;;5028501;28;20279;-55
2022/03/09 06:20:54;;;;;;;4.53;3.40;;;7.30;57.40;;;;;;5027008;28;20681;-56
2022/03/09 06:23:21;;;;;;;4.00;3.10;;;7.30;57.50;;;;;;5027040;28;20192;-56
2022/03/09 06:25:49;;;;;;;4.57;3.40;;;7.30;57.50;;;;;;5028591;28;20197;-57
2022/03/09 06:28:17;;;;;;;3.80;3.25;;;7.40;57.40;;;;;;5025166;28;20188;-58
2022/03/09 06:30:44;;;;;;;5.20;3.50;;;7.50;57.50;;;;;;5025996;28;20432;-55
2022/03/09 06:33:11;;;;;;;4.17;3.30;;;7.50;57.40;;;;;;5020933;28;20198;-58
2022/03/09 06:35:39;;;;;;;4.13;2.87;;;7.50;57.40;;;;;;5006870;28;20269;-55
2022/03/09 06:38:06;;;;;;;4.57;3.13;;;7.60;57.40;;;;;;5024357;28;20680;-53
2022/03/09 06:40:33;;;;;;;5.67;4.10;;;7.60;57.50;;;;;;5010515;28;20564;-52
2022/03/09 06:43:02;;;;;;;6.67;4.17;;;7.70;57.60;;;;;;5023754;28;20201;-52
2022/03/09 06:45:30;;;;;;;5.20;3.67;;;7.70;57.50;;;;;;5024197;28;20621;-58
2022/03/09 06:47:57;;;;;;;3.30;2.97;;;7.80;57.60;;;;;;5024100;28;20190;-59
2022/03/09 06:50:24;;;;;;;5.90;3.50;;;7.80;57.60;;;;;;5010582;28;20240;-57
2022/03/09 06:52:51;;;;;;;4.50;3.17;;;7.80;57.60;;;;;;5022605;28;20202;-56
2022/03/09 06:55:18;;;;;;;4.17;3.30;;;7.90;58.00;;;;;;5015981;28;20292;-56
2022/03/09 06:57:46;;;;;;;4.30;3.30;;;7.90;57.60;;;;;;5026814;28;20690;-59
2022/03/09 07:00:15;;;;;;;7.23;4.37;;;7.90;57.50;;;;;;5019365;28;20187;-55
2022/03/09 07:02:43;;;;;;;6.13;3.83;;;8.00;58.20;;;;;;5024829;28;20239;-53
2022/03/09 07:05:13;;;;;;;4.70;2.90;;;8.00;57.50;;;;;;5024551;28;20226;-58
2022/03/09 07:07:40;;;;;;;5.80;3.70;;;8.10;57.50;;;;;;5024068;28;20196;-53
2022/03/09 07:10:11;;;;;;;4.80;3.23;;;8.20;57.40;;;;;;5019308;28;20211;-52
2022/03/09 07:12:39;;;;;;;5.17;3.10;;;8.30;57.40;;;;;;5010286;28;20194;-54
2022/03/09 07:15:07;;;;;;;3.93;2.90;;;8.30;57.30;;;;;;5020648;28;20182;-58
2022/03/09 07:17:35;;;;;;;5.33;3.60;;;8.40;57.10;;;;;;5020591;28;20252;-57
2022/03/09 07:20:03;;;;;;;6.63;4.33;;;8.60;57.20;;;;;;5026838;28;20182;-51
2022/03/09 07:22:30;;;;;;;5.77;4.10;;;8.60;57.00;;;;;;5026637;28;20199;-54
2022/03/09 07:24:57;;;;;;;5.70;3.47;;;8.70;57.00;;;;;;5030370;28;20276;-53
2022/03/09 07:27:27;;;;;;;6.60;3.63;;;8.80;57.00;;;;;;5028443;28;20194;-55
2022/03/09 07:29:56;;;;;;;5.13;3.60;;;8.90;56.80;;;;;;5025691;28;20248;-58
2022/03/09 07:32:23;;;;;;;5.57;3.60;;;9.00;56.70;;;;;;5026619;28;20273;-54
2022/03/09 07:34:52;;;;;;;5.60;4.00;;;9.10;56.70;;;;;;5024215;28;20218;-54
2022/03/09 07:37:19;;;;;;;8.53;4.80;;;9.20;56.70;;;;;;5026647;28;20195;-58
2022/03/09 07:39:46;;;;;;;5.33;3.63;;;9.30;56.60;;;;;;5021418;28;20191;-56
2022/03/09 07:42:13;;;;;;;8.23;4.30;;;9.40;56.50;;;;;;5030367;28;20202;-58
2022/03/09 07:44:40;;;;;;;5.93;3.90;;;9.50;56.40;;;;;;5026110;28;20198;-58
2022/03/09 07:47:07;;;;;;;7.40;4.20;;;9.70;56.50;;;;;;5028264;28;20579;-57
2022/03/09 07:49:36;;;;;;;7.30;4.23;;;9.70;56.30;;;;;;5031987;28;20685;-57
2022/03/09 07:52:06;;;;;;;6.37;4.17;;;9.90;56.40;;;;;;5028924;28;20285;-54
2022/03/09 07:54:33;;;;;;;7.10;3.90;;;10.00;55.40;;;;;;5007697;28;20190;-55
2022/03/09 07:57:01;;;;;;;4.90;4.00;;;10.00;55.40;;;;;;5010417;28;20200;-54
2022/03/09 07:59:29;;;;;;;4.30;3.23;;;10.20;55.80;;;;;;5019959;28;20196;-56
2022/03/09 08:01:56;;;;;;;5.40;3.83;;;10.70;55.90;;;;;;5017390;28;20236;-55
2022/03/09 08:04:25;;;;;;;5.87;4.33;;;11.60;55.30;;;;;;5015963;28;20215;-53
2022/03/09 08:06:54;;;;;;;7.30;4.00;;;12.60;54.30;;;;;;5018346;28;20674;-57
2022/03/09 08:09:22;;;;;;;6.07;4.00;;;13.40;53.10;;;;;;5025990;28;20727;-57
2022/03/09 08:11:50;;;;;;;4.37;3.47;;;14.00;52.00;;;;;;5008027;28;20195;-52
2022/03/09 08:14:17;;;;;;;5.93;3.80;;;14.60;51.10;;;;;;5019440;28;20191;-56
2022/03/09 08:16:44;;;;;;;6.00;3.63;;;15.10;50.40;;;;;;5025825;28;20263;-56
2022/03/09 08:19:11;;;;;;;6.70;3.50;;;15.60;50.00;;;;;;5026217;28;20907;-57
2022/03/09 08:21:38;;;;;;;5.13;3.53;;;16.00;49.40;;;;;;5023430;28;20192;-55
2022/03/09 08:24:07;;;;;;;6.07;3.40;;;16.40;48.70;;;;;;5021685;28;20580;-54
2022/03/09 08:26:35;;;;;;;4.30;3.37;;;16.80;48.80;;;;;;5024407;28;20223;-55
2022/03/09 08:29:03;;;;;;;6.03;3.50;;;17.10;47.70;;;;;;5025598;28;20584;-56
2022/03/09 08:31:30;;;;;;;4.77;3.33;;;17.30;47.00;;;;;;5026736;28;20971;-57
2022/03/09 08:33:58;;;;;;;7.47;3.70;;;17.60;46.70;;;;;;5025194;28;20196;-53
2022/03/09 08:36:25;;;;;;;4.10;3.30;;;18.00;46.30;;;;;;5026289;28;20206;-56
2022/03/09 08:38:53;;;;;;;4.43;3.10;;;18.20;45.60;;;;;;5018112;28;20201;-57
2022/03/09 08:41:24;;;;;;;4.63;3.63;;;18.10;45.40;;;;;;5019250;28;20210;-55
2022/03/09 08:43:53;;;;;;;4.20;3.27;;;18.30;45.30;;;;;;5018205;28;20609;-56
2022/03/09 08:46:20;;;;;;;6.37;4.03;;;18.50;44.70;;;;;;5023143;28;20209;-54
2022/03/09 08:48:47;;;;;;;4.73;3.67;;;18.60;44.20;;;;;;5022088;28;20191;-58
2022/03/09 08:51:17;;;;;;;5.00;3.53;;;18.70;44.40;;;;;;5025422;28;20217;-55
2022/03/09 08:53:44;;;;;;;6.17;3.70;;;19.00;43.80;;;;;;5023654;28;20194;-52
2022/03/09 08:56:11;;;;;;;4.23;3.50;;;19.10;43.30;;;;;;5020481;28;20223;-55
2022/03/09 08:58:39;;;;;;;4.77;3.23;;;19.10;43.00;;;;;;5009281;28;20206;-56
2022/03/09 09:01:07;;;;;;;3.07;2.77;;;19.10;43.10;;;;;;5028439;28;20202;-57
2022/03/09 09:03:35;;;;;;;4.90;2.93;;;19.20;43.10;;;;;;5029017;28;20238;-54
2022/03/09 09:06:02;;;;;;;4.10;3.30;;;19.30;42.90;;;;;;5023667;28;20223;-52
2022/03/09 09:08:29;;;;;;;3.20;2.73;;;19.50;42.40;;;;;;5016546;28;20207;-56
2022/03/09 09:10:56;;;;;;;3.07;2.77;;;19.70;42.20;;;;;;5027424;28;20701;-55
2022/03/09 09:13:23;;;;;;;3.50;2.10;;;19.60;41.60;;;;;;5026365;28;20661;-56
2022/03/09 09:15:50;;;;;;;2.27;2.00;;;19.40;41.80;;;;;;5019725;28;20199;-49
2022/03/09 09:18:19;;;;;;;2.53;2.00;;;19.10;41.80;;;;;;5023157;28;20556;-55
2022/03/09 09:20:48;;;;;;;2.40;2.20;;;19.00;41.70;;;;;;5017268;28;20195;-53
2022/03/09 09:23:15;;;;;;;2.77;2.33;;;18.90;41.60;;;;;;5005664;28;20587;-53
2022/03/09 09:25:42;;;;;;;3.00;2.27;;;18.50;41.40;;;;;;5016790;28;20198;-55
2022/03/09 09:28:09;;;;;;;2.23;2.13;;;18.20;41.60;;;;;;5021153;28;20658;-53
2022/03/09 09:30:36;;;;;;;2.87;2.37;;;17.90;41.80;;;;;;5028426;28;20292;-52
2022/03/09 09:33:04;;;;;;;2.30;2.00;;;17.60;41.90;;;;;;5024087;28;20190;-54
2022/03/09 09:35:33;;;;;;;2.20;1.90;;;17.80;41.90;;;;;;5022732;28;20234;-56
2022/03/09 09:38:06;;;;;;;1.73;1.60;;;17.70;41.30;;;;;;5023113;28;20297;-56
2022/03/09 09:40:34;;;;;;;2.13;1.63;;;17.50;41.50;;;;;;5021437;28;20187;-54
2022/03/09 09:43:07;;;;;;;1.70;1.60;;;17.40;41.50;;;;;;5001215;28;20223;-54
2022/03/09 09:45:35;;;;;;;1.70;1.60;;;17.30;41.50;;;;;;5022198;28;20190;-53
2022/03/09 09:48:02;;;;;;;2.53;1.70;;;17.20;41.40;;;;;;5020456;28;20199;-55
2022/03/09 09:50:29;;;;;;;1.83;1.40;;;17.20;41.40;;;;;;5020110;28;20333;-55
2022/03/09 09:52:58;;;;;;;3.57;1.70;;;17.40;41.20;;;;;;5023403;28;20263;-53
2022/03/09 09:55:27;;;;;;;3.83;2.03;;;18.00;40.90;;;;;;5021721;28;20206;-54
2022/03/09 09:57:56;;;;;;;2.33;1.63;;;18.50;40.10;;;;;;5029070;28;20277;-55
2022/03/09 10:00:24;;;;;;;2.23;2.03;;;19.00;39.80;;;;;;5010012;28;20260;-54
2022/03/09 10:02:52;;;;;;;2.77;2.13;;;19.90;39.30;;;;;;5024759;28;20228;-55
2022/03/09 10:05:20;;;;;;;2.65;2.10;;;21.00;38.50;;;;;;5026526;28;20203;-55
2022/03/09 10:08:16;;;;;;;2.13;1.90;;;22.20;37.40;;;;;;5007405;28;20202;-57
2022/03/09 10:10:46;;;;;;;2.47;2.05;;;23.80;36.70;;;;;;5013323;28;20207;-57
2022/03/09 10:13:15;;;;;;;2.30;2.00;;;25.20;34.90;;;;;;5012052;28;20202;-56
2022/03/09 10:15:44;;;;;;;1.90;1.80;;;26.10;33.80;;;;;;5023044;28;20270;-58
2022/03/09 10:18:19;;;;;;;2.22;2.03;;;26.90;33.10;;;;;;5020471;28;20197;-59
2022/03/09 10:20:48;;;;;;;4.18;2.75;;;27.70;31.80;;;;;;5025135;28;20218;-58
2022/03/09 10:23:18;;;;;;;4.47;2.85;;;28.40;31.30;;;;;;5018849;28;20194;-59
2022/03/09 10:25:47;;;;;;;2.45;2.22;;;28.80;30.40;;;;;;5028355;28;20657;-59
2022/03/09 10:28:15;;;;;;;4.00;3.25;;;29.30;30.20;;;;;;5018843;28;20538;-58
2022/03/09 10:30:44;;;;;;;5.07;3.90;;;29.60;29.50;;;;;;5019546;28;20206;-57
2022/03/09 10:33:12;;;;;;;6.00;3.70;;;30.00;28.70;;;;;;5021476;28;20317;-55
2022/03/09 10:35:45;;;;;;;4.18;3.00;;;30.40;28.50;;;;;;5020053;28;20202;-58
2022/03/09 10:38:25;;;;;;;4.38;2.97;;;30.80;27.70;;;;;;5025000;28;20225;-55
2022/03/09 10:40:55;;;;;;;3.45;3.15;;;31.20;27.40;;;;;;5024895;28;20182;-57
2022/03/09 10:43:24;;;;;;;5.22;3.20;;;31.70;26.70;;;;;;5022828;28;20575;-53
2022/03/09 10:45:59;;;;;;;3.22;2.90;;;31.80;25.90;;;;;;5019969;28;20229;-56
2022/03/09 10:48:26;;;;;;;3.10;2.83;;;31.90;25.40;;;;;;5024854;28;20252;-58
2022/03/09 10:50:55;;;;;;;4.00;3.45;;;32.10;25.50;;;;;;5021421;28;20597;-51
2022/03/09 10:53:24;;;;;;;5.03;4.22;;;32.10;25.20;;;;;;5033060;28;20234;-54
2022/03/09 10:55:51;;;;;;;13.40;5.55;;;32.40;25.10;;;;;;5017676;28;20194;-57
2022/03/09 10:58:20;;;;;;;5.50;4.65;;;32.60;24.80;;;;;;5021285;28;20195;-57
2022/03/09 11:00:50;;;;;;;5.13;4.20;;;32.60;24.90;;;;;;5008259;28;20589;-50
2022/03/09 11:03:20;;;;;;;8.95;5.30;;;32.70;25.10;;;;;;5020799;28;20761;-54
2022/03/09 11:05:53;;;;;;;7.32;5.40;;;32.60;24.60;;;;;;5025807;28;20727;-54
2022/03/09 11:08:21;;;;;;;11.15;6.97;;;32.70;25.00;;;;;;5027984;28;20608;-55
2022/03/09 11:10:50;;;;;;;8.73;6.80;;;32.90;25.00;;;;;;5029080;28;20218;-56
2022/03/09 11:13:18;;;;;;;11.95;6.57;;;32.90;24.90;;;;;;5022816;28;20681;-57
2022/03/09 11:15:48;;;;;;;11.27;6.13;;;33.00;24.70;;;;;;5023056;28;20195;-57
2022/03/09 11:18:19;;;;;;;8.77;5.70;;;33.10;24.20;;;;;;5020055;28;20584;-57
2022/03/09 11:20:48;;;;;;;7.03;5.68;;;33.00;24.00;;;;;;5026168;28;20278;-57
2022/03/09 11:23:15;;;;;;;7.10;5.50;;;33.10;24.00;;;;;;5029765;28;20673;-53
2022/03/09 11:25:50;;;;;;;9.27;6.03;;;33.00;24.10;;;;;;5016683;28;20199;-55
2022/03/09 11:28:24;;;;;;;8.88;6.15;;;32.60;23.80;;;;;;5026087;28;20194;-57
2022/03/09 11:30:55;;;;;;;7.22;6.05;;;31.70;23.80;;;;;;5028574;28;20565;-56
2022/03/09 11:33:41;;;;;;;16.30;8.27;;;30.70;24.30;;;;;;5034845;28;20207;-53
2022/03/09 11:36:33;;;;;;;27.92;15.50;;;29.50;24.90;;;;;;5017870;28;20198;-56
2022/03/09 11:39:24;;;;;;;30.08;16.45;;;28.50;25.00;;;;;;5022832;28;20277;-55
2022/03/09 11:42:26;;;;;;;39.65;19.92;;;28.10;25.30;;;;;;5022383;28;20662;-53
2022/03/09 11:44:56;;;;;;;32.25;17.27;;;27.90;25.40;;;;;;5028364;28;20194;-57
2022/03/09 11:47:23;;;;;;;28.95;15.13;;;27.60;25.40;;;;;;5011157;28;20666;-57
2022/03/09 11:50:09;;;;;;;14.90;8.80;;;27.30;25.80;;;;;;5030387;28;20774;-51
2022/03/09 11:52:55;;;;;;;7.63;5.00;;;27.10;26.20;;;;;;5024348;28;20278;-58
2022/03/09 11:55:22;;;;;;;6.10;4.55;;;27.00;26.30;;;;;;5016472;28;20199;-55
2022/03/09 11:58:09;;;;;;;8.32;4.93;;;27.40;26.30;;;;;;5026834;28;20237;-55
2022/03/09 12:00:39;;;;;;;8.82;5.68;;;28.00;25.90;;;;;;5020526;28;20674;-56
2022/03/09 12:03:06;;;;;;;5.13;4.57;;;28.50;25.50;;;;;;5012750;28;20246;-55
2022/03/09 12:05:42;;;;;;;17.05;5.60;;;29.00;25.40;;;;;;5029313;28;20207;-54
2022/03/09 12:08:11;;;;;;;7.18;5.15;;;29.30;24.90;;;;;;5009726;28;20198;-51
2022/03/09 12:10:50;;;;;;;8.68;6.32;;;29.50;24.50;;;;;;5029753;28;20304;-55
2022/03/09 12:13:33;;;;;;;4.82;4.43;;;29.70;24.50;;;;;;5029988;28;20609;-52
2022/03/09 12:16:19;;;;;;;6.15;3.70;;;29.90;25.30;;;;;;5029302;28;20200;-54
2022/03/09 12:19:10;;;;;;;8.70;4.10;;;30.00;24.60;;;;;;5028601;28;20199;-54
2022/03/09 12:22:03;;;;;;;5.25;3.25;;;29.60;24.50;;;;;;5031229;28;20187;-55
2022/03/09 12:24:33;;;;;;;8.70;3.80;;;29.10;24.90;;;;;;5025408;28;20238;-52
2022/03/09 12:27:01;;;;;;;6.68;3.78;;;29.00;25.00;;;;;;5029531;28;20275;-54
2022/03/09 12:29:37;;;;;;;5.93;3.88;;;28.60;25.30;;;;;;5030472;28;20222;-54
2022/03/09 12:32:07;;;;;;;5.88;3.45;;;28.30;25.50;;;;;;5030254;28;20287;-56
2022/03/09 12:34:37;;;;;;;9.10;4.28;;;28.00;25.70;;;;;;5020829;28;20199;-54
2022/03/09 12:37:07;;;;;;;10.13;3.92;;;27.90;26.00;;;;;;5022748;28;20210;-57
2022/03/09 12:39:34;;;;;;;6.93;3.90;;;27.90;26.10;;;;;;5012899;28;20206;-53
2022/03/09 12:42:03;;;;;;;3.15;2.10;;;27.70;26.30;;;;;;5030692;28;20194;-52
2022/03/09 12:44:32;;;;;;;9.98;2.45;;;27.20;26.70;;;;;;5014581;28;20195;-55
2022/03/09 12:47:03;;;;;;;13.40;2.67;;;26.60;27.20;;;;;;5019584;28;20206;-55
2022/03/09 12:49:35;;;;;;;10.40;3.47;;;25.90;27.90;;;;;;5029634;28;20633;-49
2022/03/09 12:52:04;;;;;;;4.53;1.98;;;25.20;28.60;;;;;;5030932;28;20207;-54
2022/03/09 12:54:36;;;;;;;5.82;2.50;;;24.80;29.10;;;;;;5025545;28;20372;-55
2022/03/09 12:57:12;;;;;;;5.47;2.70;;;24.70;29.50;;;;;;5030242;28;20230;-52
2022/03/09 12:59:40;;;;;;;5.47;3.97;;;24.80;29.60;;;;;;5028660;28;20197;-52
2022/03/09 13:02:08;;;;;;;5.80;4.63;;;24.90;29.60;;;;;;5029766;28;20230;-55